OICI  Ilam  Airport

Ilam, Iran

Add Bookmark
Status IATA
Operational IIL
Latitude Longitude
33° 35' 11" N 46° 24' 17" E
33.586601 46.404800
Local (DST + 5) UTC (GMT + 4)
Mar 29, 2015 04:53 Mar 29, 2015 12:23
Sunrise-Sunset Local UTC
Begin Civil Twilight 06:49 02:19
Sunrise 07:14 02:44
Sunset 07:43 15:13
End Civil Twilight 08:08 15:38

Current Weather

METAR Observed MVFR
OICI 291200Z 17004KT 8000 +SH FEW035CB SCT040 OVC070 12/10 Q1017 A3005 Sun, Mar 29, 2015 @ 12:00 UTC
(23 Minutes ago)
Marginal Visual Flight Rules
Wind Visibility Clouds Conditions
170° at 4 knots (7 kph) 8000 meters
  • Few at 3,500' AGL
  • Scattered at 4,000' AGL
  • Overcast at 7,000' AGL
  • Showers
Temperatures Readings Precipitation
Current Temp 12°C (54°F)
Dewpoint 10°C (50°F)
Humidity 88%
Altimeter 30.03"Hg
Sea Level Pressure 1017mb
Field Elevation 4406.17'
None Recorded

Additional weather within a 185.2km radius of OICI

Map ICAO Location
OIGK 101.5km N (040°)
OICC 109.3km N (039°)
OICK 174.8km E (095°)

24 Hour Weather History

Loading
-

24 Hour Weather Graphs

Loading
-

CheckWX.com is intended as a tool to help pilots better visualize weather data. It is not intended as a substitute for an official weather briefing obtained from a Flight Service Station. CheckWX.com does not meet the FAA requirements for an official pre-flight weather briefing. Therefore, it's important that pilots still call and obtain an official FSS pre-flight weather briefing.